createdAt,value
2023-01-15T00:01:01.474Z,7.07
2023-01-15T00:03:29.268Z,6.93
2023-01-15T00:05:58.389Z,6.80
2023-01-15T00:08:26.177Z,6.76
2023-01-15T00:10:53.790Z,6.69
2023-01-15T00:13:22.947Z,6.62
2023-01-15T00:15:50.984Z,6.51
2023-01-15T00:18:18.623Z,6.42
2023-01-15T00:20:46.537Z,6.41
2023-01-15T00:23:34.129Z,6.30
2023-01-15T00:26:19.354Z,6.21
2023-01-15T00:28:50.647Z,6.18
2023-01-15T00:31:18.288Z,6.14
2023-01-15T00:33:45.919Z,6.14
2023-01-15T00:36:13.972Z,6.07
2023-01-15T00:38:41.536Z,6.06
2023-01-15T00:41:09.515Z,6.06
2023-01-15T00:43:37.158Z,6.07
2023-01-15T00:46:08.551Z,5.97
2023-01-15T00:48:37.042Z,5.98
2023-01-15T00:51:05.572Z,5.94
2023-01-15T00:53:33.659Z,5.95
2023-01-15T00:56:02.959Z,5.86
2023-01-15T00:58:31.029Z,5.96
2023-01-15T01:01:00.852Z,5.92
2023-01-15T01:03:31.025Z,5.85
2023-01-15T01:06:02.366Z,5.84
2023-01-15T01:08:30.284Z,5.78
2023-01-15T01:11:06.486Z,5.77
2023-01-15T01:13:34.392Z,5.79
2023-01-15T01:16:02.912Z,5.77
2023-01-15T01:18:32.739Z,5.78
2023-01-15T01:21:01.234Z,5.80
2023-01-15T01:23:30.404Z,5.76
2023-01-15T01:25:58.949Z,5.80
2023-01-15T01:28:27.531Z,5.79
2023-01-15T01:30:57.419Z,5.77
2023-01-15T01:33:25.520Z,5.76
2023-01-15T01:35:54.470Z,5.78
2023-01-15T01:38:22.416Z,5.77
2023-01-15T01:40:53.551Z,5.77
2023-01-15T01:43:22.957Z,5.77
2023-01-15T01:45:50.760Z,5.82
2023-01-15T01:48:22.462Z,5.80
2023-01-15T01:50:52.511Z,5.79
2023-01-15T01:53:25.160Z,5.79
2023-01-15T01:55:56.503Z,5.77
2023-01-15T01:58:28.611Z,5.77
2023-01-15T02:00:57.544Z,5.75
2023-01-15T02:03:35.404Z,5.79
2023-01-15T02:06:10.548Z,5.76
2023-01-15T02:08:40.440Z,5.78
2023-01-15T02:11:17.487Z,5.76
2023-01-15T02:13:55.407Z,5.75
2023-01-15T02:16:26.737Z,5.76
2023-01-15T02:19:01.289Z,5.77
2023-01-15T02:21:45.486Z,5.78
2023-01-15T02:24:18.428Z,5.79
2023-01-15T02:27:03.281Z,5.77
2023-01-15T02:29:39.399Z,5.80
2023-01-15T02:32:12.142Z,5.81
2023-01-15T02:34:49.400Z,5.79
2023-01-15T02:37:23.436Z,5.81
2023-01-15T02:39:56.416Z,5.82
2023-01-15T02:42:30.481Z,5.83
2023-01-15T02:45:01.638Z,5.85
2023-01-15T02:47:35.270Z,5.84
2023-01-15T02:50:08.430Z,5.80
2023-01-15T02:52:44.708Z,5.86
2023-01-15T02:55:18.911Z,5.81
2023-01-15T02:57:52.580Z,5.86
2023-01-15T03:00:23.757Z,5.89
2023-01-15T03:02:59.269Z,5.83
2023-01-15T03:05:32.516Z,5.84
2023-01-15T03:08:03.853Z,5.85
2023-01-15T03:10:43.455Z,5.84
2023-01-15T03:13:44.275Z,5.89
2023-01-15T03:16:38.476Z,5.86
2023-01-15T03:19:19.162Z,5.82
2023-01-15T03:21:55.753Z,5.85
2023-01-15T03:24:32.141Z,5.91
2023-01-15T03:27:01.628Z,5.84
2023-01-15T03:29:38.419Z,5.87
2023-01-15T03:32:08.369Z,5.94
2023-01-15T03:34:41.313Z,5.88
2023-01-15T03:37:10.428Z,5.88
2023-01-15T03:39:40.338Z,5.91
2023-01-15T03:42:36.189Z,5.87
2023-01-15T03:45:12.829Z,5.86
2023-01-15T03:47:54.528Z,5.87
2023-01-15T03:50:32.455Z,5.83
2023-01-15T03:53:11.510Z,5.87
2023-01-15T03:55:54.438Z,5.89
2023-01-15T03:58:30.148Z,5.91
2023-01-15T04:01:05.499Z,5.88
2023-01-15T04:03:36.164Z,5.86
2023-01-15T04:06:08.410Z,5.92
2023-01-15T04:08:41.353Z,5.89
2023-01-15T04:11:09.650Z,5.84
2023-01-15T04:13:44.375Z,5.82
2023-01-15T04:16:29.417Z,5.92
2023-01-15T04:19:00.954Z,5.92
2023-01-15T04:21:30.680Z,5.92
2023-01-15T04:23:59.847Z,5.97
2023-01-15T04:26:27.437Z,5.91
2023-01-15T04:28:56.008Z,5.88
2023-01-15T04:31:23.703Z,5.90
2023-01-15T04:33:54.400Z,5.94
2023-01-15T04:36:22.428Z,5.92
2023-01-15T04:38:50.881Z,5.89
2023-01-15T04:41:36.345Z,5.88
2023-01-15T04:44:09.962Z,5.94
2023-01-15T04:46:39.373Z,5.91
2023-01-15T04:49:13.490Z,5.91
2023-01-15T04:51:42.024Z,5.99
2023-01-15T04:54:11.323Z,5.92
2023-01-15T04:56:40.994Z,5.85
2023-01-15T04:59:10.289Z,5.86
2023-01-15T05:01:38.402Z,5.89
2023-01-15T05:04:09.564Z,5.96
2023-01-15T05:06:37.456Z,5.86
2023-01-15T05:09:09.889Z,5.86
2023-01-15T05:11:39.412Z,5.89
2023-01-15T05:14:08.269Z,5.85
2023-01-15T05:16:38.097Z,5.89
2023-01-15T05:19:08.226Z,5.88
2023-01-15T05:21:40.740Z,5.84
2023-01-15T05:24:10.999Z,5.87
2023-01-15T05:26:38.924Z,5.86
2023-01-15T05:31:59.998Z,5.83
2023-01-15T05:34:27.537Z,5.84
2023-01-15T05:36:57.344Z,5.86
2023-01-15T05:39:25.969Z,5.83
2023-01-15T05:41:54.509Z,5.86
2023-01-15T05:44:24.391Z,5.87
2023-01-15T05:46:54.521Z,5.89
2023-01-15T05:49:25.421Z,5.83
2023-01-15T05:51:54.802Z,5.87
2023-01-15T05:54:26.300Z,5.86
2023-01-15T05:56:54.628Z,5.86
2023-01-15T05:59:25.407Z,5.90
2023-01-15T06:04:45.825Z,5.84
2023-01-15T06:07:13.594Z,5.89
2023-01-15T06:09:45.384Z,5.88
2023-01-15T06:12:14.837Z,5.88
2023-01-15T06:14:42.450Z,5.98
2023-01-15T06:17:10.797Z,5.92
2023-01-15T06:19:38.928Z,5.89
2023-01-15T06:22:09.645Z,5.95
2023-01-15T06:24:39.382Z,5.96
2023-01-15T06:27:08.409Z,6.01
2023-01-15T06:29:40.048Z,5.92
2023-01-15T06:32:07.823Z,5.94
2023-01-15T06:34:36.294Z,5.90
2023-01-15T06:37:03.987Z,5.97
2023-01-15T06:39:31.577Z,6.04
2023-01-15T06:42:16.621Z,5.96
2023-01-15T06:45:04.438Z,6.03
2023-01-15T06:47:32.495Z,6.00
2023-01-15T06:50:00.063Z,5.95
2023-01-15T06:52:30.465Z,5.95
2023-01-15T06:54:58.115Z,5.98
2023-01-15T06:57:25.856Z,6.00
2023-01-15T07:00:02.629Z,6.06
2023-01-15T07:02:30.286Z,6.02
2023-01-15T07:04:57.889Z,6.03
2023-01-15T07:07:28.858Z,6.05
2023-01-15T07:10:00.822Z,6.04
2023-01-15T07:12:28.816Z,6.11
2023-01-15T07:14:56.405Z,6.07
2023-01-15T07:17:25.357Z,5.96
2023-01-15T07:19:54.906Z,5.98
2023-01-15T07:22:25.956Z,6.06
2023-01-15T07:24:53.844Z,6.06
2023-01-15T07:27:21.543Z,6.13
2023-01-15T07:29:49.817Z,6.05
2023-01-15T07:32:17.484Z,6.05
2023-01-15T07:34:47.414Z,6.05
2023-01-15T07:37:15.049Z,6.09
2023-01-15T07:39:44.814Z,6.15
2023-01-15T07:42:29.793Z,6.06
2023-01-15T07:45:15.313Z,6.10
2023-01-15T07:48:00.729Z,6.10
2023-01-15T07:50:30.516Z,6.09
2023-01-15T07:52:59.830Z,6.10
2023-01-15T07:55:28.049Z,6.07
2023-01-15T07:57:56.425Z,6.06
2023-01-15T08:00:26.331Z,6.08
2023-01-15T08:02:58.772Z,6.04
2023-01-15T08:05:31.186Z,6.00
2023-01-15T08:07:58.949Z,6.09
2023-01-15T08:10:26.874Z,6.06
2023-01-15T08:13:11.992Z,6.11
2023-01-15T08:15:43.737Z,6.06
2023-01-15T08:18:11.539Z,5.98
2023-01-15T08:20:41.215Z,6.05
2023-01-15T08:23:10.520Z,5.97
2023-01-15T08:25:38.095Z,5.96
2023-01-15T08:28:06.040Z,6.06
2023-01-15T08:30:33.652Z,6.00
2023-01-15T08:33:03.707Z,6.04
2023-01-15T08:35:31.756Z,5.97
2023-01-15T08:38:05.426Z,6.06
2023-01-15T08:40:33.970Z,5.95
2023-01-15T08:43:01.571Z,5.97
2023-01-15T08:45:29.166Z,5.89
2023-01-15T08:47:57.845Z,5.87
2023-01-15T08:50:27.411Z,5.91
2023-01-15T08:52:56.024Z,5.89
2023-01-15T08:55:25.190Z,5.90
2023-01-15T08:57:53.517Z,5.89
2023-01-15T09:00:24.455Z,5.94
2023-01-15T09:02:52.912Z,5.92
2023-01-15T09:05:20.612Z,5.87
2023-01-15T09:07:48.485Z,5.88
2023-01-15T09:10:17.413Z,5.86
2023-01-15T09:12:46.380Z,5.84
2023-01-15T09:15:14.197Z,5.86
2023-01-15T09:17:42.553Z,5.96
2023-01-15T09:20:13.768Z,5.96
2023-01-15T09:22:41.382Z,5.98
2023-01-15T09:25:09.501Z,5.95
2023-01-15T09:27:38.024Z,5.95
2023-01-15T09:30:08.608Z,5.95
2023-01-15T09:32:37.910Z,5.97
2023-01-15T09:35:06.288Z,5.99
2023-01-15T09:37:33.909Z,6.02
2023-01-15T09:40:02.574Z,6.07
2023-01-15T09:42:41.391Z,6.10
2023-01-15T09:45:25.688Z,6.31
2023-01-15T09:48:18.348Z,6.38
2023-01-15T09:51:00.287Z,6.50
2023-01-15T09:53:40.546Z,6.45
2023-01-15T09:56:17.564Z,6.44
2023-01-15T09:58:46.370Z,6.38
2023-01-15T10:01:20.478Z,6.48
2023-01-15T10:03:58.442Z,6.36
2023-01-15T10:06:30.395Z,6.44
2023-01-15T10:09:05.436Z,6.53
2023-01-15T10:11:57.025Z,6.53
2023-01-15T10:14:39.052Z,6.44
2023-01-15T10:17:19.488Z,6.52
2023-01-15T10:19:48.452Z,6.50
2023-01-15T10:22:28.567Z,6.55
2023-01-15T10:24:58.637Z,6.51
2023-01-15T10:27:29.992Z,6.52
2023-01-15T10:30:06.419Z,6.52
2023-01-15T10:33:01.173Z,6.47
2023-01-15T10:35:37.341Z,6.51
2023-01-15T10:38:15.290Z,6.57
2023-01-15T10:41:05.480Z,6.61
2023-01-15T10:43:44.432Z,6.61
2023-01-15T10:46:14.708Z,6.63
2023-01-15T10:48:50.457Z,6.55
2023-01-15T10:51:21.736Z,6.62
2023-01-15T10:53:55.426Z,6.67
2023-01-15T10:56:33.975Z,6.64
2023-01-15T10:59:12.040Z,6.73
2023-01-15T11:01:42.572Z,6.67
2023-01-15T11:04:13.823Z,6.65
2023-01-15T11:06:42.600Z,6.79
2023-01-15T11:09:20.608Z,6.87
2023-01-15T11:12:08.227Z,6.83
2023-01-15T11:14:56.206Z,6.83
2023-01-15T11:17:42.450Z,6.90
2023-01-15T11:20:28.661Z,6.88
2023-01-15T11:22:57.660Z,6.88
2023-01-15T11:25:30.749Z,6.95
2023-01-15T11:28:01.498Z,6.92
2023-01-15T11:30:32.433Z,7.00
2023-01-15T11:33:03.971Z,6.95
2023-01-15T11:35:37.432Z,7.16
2023-01-15T11:38:07.550Z,7.04
2023-01-15T11:40:35.593Z,7.10
2023-01-15T11:43:24.427Z,6.96
2023-01-15T11:46:11.411Z,6.95
2023-01-15T11:49:05.036Z,7.12
2023-01-15T11:51:42.029Z,7.12
2023-01-15T11:54:13.765Z,7.01
2023-01-15T11:56:46.459Z,7.02
2023-01-15T11:59:19.669Z,7.05
2023-01-15T12:01:54.813Z,7.06
2023-01-15T12:04:31.797Z,7.17
2023-01-15T12:07:02.213Z,7.15
2023-01-15T12:09:45.403Z,7.08
2023-01-15T12:12:28.029Z,7.14
2023-01-15T12:15:17.436Z,7.31
2023-01-15T12:18:08.925Z,7.33
2023-01-15T12:20:55.838Z,7.13
2023-01-15T12:23:42.994Z,7.18
2023-01-15T12:26:20.841Z,7.20
2023-01-15T12:28:58.768Z,7.23
2023-01-15T12:31:33.779Z,7.30
2023-01-15T12:34:09.497Z,7.21
2023-01-15T12:36:42.715Z,7.23
2023-01-15T12:39:19.751Z,7.20
2023-01-15T12:42:10.324Z,7.22
2023-01-15T12:45:04.113Z,7.18
2023-01-15T12:47:40.483Z,7.25
2023-01-15T12:50:23.355Z,7.22
2023-01-15T12:53:02.215Z,7.10
2023-01-15T12:55:34.250Z,7.28
2023-01-15T12:58:03.269Z,7.22
2023-01-15T13:00:38.492Z,7.26
2023-01-15T13:03:21.910Z,7.12
2023-01-15T13:05:53.462Z,7.17
2023-01-15T13:08:27.224Z,7.28
2023-01-15T13:10:56.192Z,7.23
2023-01-15T13:13:26.430Z,7.19
2023-01-15T13:16:06.774Z,7.30
2023-01-15T13:18:42.720Z,7.19
2023-01-15T13:21:13.898Z,7.21
2023-01-15T13:23:58.159Z,7.17
2023-01-15T13:26:52.509Z,7.25
2023-01-15T13:29:28.798Z,7.27
2023-01-15T13:32:06.435Z,7.40
2023-01-15T13:34:41.335Z,7.54
2023-01-15T13:37:20.434Z,7.48
2023-01-15T13:39:50.677Z,7.34
2023-01-15T13:42:38.438Z,7.46
2023-01-15T13:45:27.774Z,7.38
2023-01-15T13:48:03.612Z,7.54
2023-01-15T13:50:33.689Z,7.44
2023-01-15T13:53:05.347Z,7.48
2023-01-15T13:56:02.312Z,7.41
2023-01-15T13:58:34.455Z,7.42
2023-01-15T14:01:09.018Z,7.40
2023-01-15T14:03:38.979Z,7.36
2023-01-15T14:06:09.425Z,7.30
2023-01-15T14:08:41.647Z,7.35
2023-01-15T14:11:35.848Z,7.33
2023-01-15T14:14:20.175Z,7.36
2023-01-15T14:16:55.607Z,7.35
2023-01-15T14:19:45.156Z,7.33
2023-01-15T14:22:35.515Z,7.28
2023-01-15T14:25:25.410Z,7.30
2023-01-15T14:28:04.165Z,7.30
2023-01-15T14:30:56.955Z,7.31
2023-01-15T14:33:33.214Z,7.37
2023-01-15T14:36:11.561Z,7.47
2023-01-15T14:38:49.190Z,7.42
2023-01-15T14:41:17.626Z,7.33
2023-01-15T14:43:49.493Z,7.27
2023-01-15T14:46:28.813Z,7.30
2023-01-15T14:48:57.466Z,7.16
2023-01-15T14:51:29.541Z,7.16
2023-01-15T14:54:00.429Z,7.17
2023-01-15T14:56:32.921Z,7.20
2023-01-15T14:59:09.122Z,7.15
2023-01-15T15:01:45.591Z,7.08
2023-01-15T15:04:25.519Z,7.16
2023-01-15T15:06:57.729Z,7.04
2023-01-15T15:09:31.593Z,7.08
2023-01-15T15:12:21.427Z,7.01
2023-01-15T15:15:04.385Z,7.04
2023-01-15T15:17:40.775Z,7.05
2023-01-15T15:20:23.075Z,7.05
2023-01-15T15:22:56.219Z,7.18
2023-01-15T15:25:28.163Z,6.95
2023-01-15T15:28:13.387Z,6.95
2023-01-15T15:30:45.120Z,6.99
2023-01-15T15:33:19.266Z,7.04
2023-01-15T15:35:50.129Z,6.98
2023-01-15T15:38:20.334Z,7.03
2023-01-15T15:40:51.626Z,6.94
2023-01-15T15:43:44.042Z,7.06
2023-01-15T15:46:46.411Z,7.00
2023-01-15T15:49:18.440Z,6.99
2023-01-15T15:51:48.512Z,7.01
2023-01-15T15:54:19.629Z,7.03
2023-01-15T15:56:53.195Z,7.14
2023-01-15T15:59:40.438Z,6.98
2023-01-15T16:02:19.394Z,6.99
2023-01-15T16:04:50.178Z,7.06
2023-01-15T16:07:25.190Z,7.08
2023-01-15T16:09:55.707Z,6.97
2023-01-15T16:12:24.584Z,6.96
2023-01-15T16:14:53.700Z,6.99
2023-01-15T16:17:21.364Z,6.93
2023-01-15T16:19:51.521Z,6.99
2023-01-15T16:22:22.428Z,7.06
2023-01-15T16:24:58.090Z,6.86
2023-01-15T16:27:30.713Z,6.99
2023-01-15T16:29:59.568Z,6.94
2023-01-15T16:32:31.409Z,7.07
2023-01-15T16:35:07.418Z,6.86
2023-01-15T16:37:36.383Z,6.88
2023-01-15T16:40:06.502Z,6.84
2023-01-15T16:42:37.659Z,6.83
2023-01-15T16:45:19.032Z,6.81
2023-01-15T16:48:02.402Z,6.77
2023-01-15T16:50:34.465Z,6.80
2023-01-15T16:53:04.523Z,6.85
2023-01-15T16:55:41.100Z,6.90
2023-01-15T16:58:20.531Z,6.80
2023-01-15T17:00:51.561Z,6.88
2023-01-15T17:03:21.285Z,6.86
2023-01-15T17:05:53.565Z,6.83
2023-01-15T17:08:25.142Z,6.79
2023-01-15T17:10:55.882Z,6.80
2023-01-15T17:13:34.957Z,6.81
2023-01-15T17:16:06.506Z,6.79
2023-01-15T17:18:35.661Z,6.77
2023-01-15T17:21:06.432Z,6.83
2023-01-15T17:23:36.952Z,6.78
2023-01-15T17:26:05.795Z,6.77
2023-01-15T17:28:33.503Z,6.76
2023-01-15T17:31:05.454Z,6.73
2023-01-15T17:33:33.126Z,6.73
2023-01-15T17:36:01.333Z,6.77
2023-01-15T17:38:30.432Z,6.74
2023-01-15T17:41:03.476Z,6.74
2023-01-15T17:43:31.141Z,6.75
2023-01-15T17:46:00.121Z,6.76
2023-01-15T17:48:28.080Z,6.69
2023-01-15T17:50:56.467Z,6.65
2023-01-15T17:53:24.128Z,6.70
2023-01-15T17:56:10.400Z,6.57
2023-01-15T17:58:58.483Z,6.63
2023-01-15T18:01:47.163Z,6.64
2023-01-15T18:04:36.795Z,6.60
2023-01-15T18:07:06.508Z,6.54
2023-01-15T18:09:36.430Z,6.56
2023-01-15T18:12:08.310Z,6.61
2023-01-15T18:14:37.415Z,6.43
2023-01-15T18:17:05.136Z,6.47
2023-01-15T18:19:34.437Z,6.40
2023-01-15T18:22:04.281Z,6.44
2023-01-15T18:24:31.911Z,6.38
2023-01-15T18:27:00.006Z,6.37
2023-01-15T18:29:29.635Z,6.46
2023-01-15T18:31:57.357Z,6.46
2023-01-15T18:34:24.976Z,6.48
2023-01-15T18:36:52.856Z,6.38
2023-01-15T18:39:21.432Z,6.45
2023-01-15T18:42:06.510Z,6.45
2023-01-15T18:44:53.452Z,6.45
2023-01-15T18:47:21.300Z,6.40
2023-01-15T18:49:51.250Z,6.38
2023-01-15T18:52:37.348Z,6.38
2023-01-15T18:55:05.454Z,6.25
2023-01-15T18:57:33.796Z,6.33
2023-01-15T19:00:02.998Z,6.42
2023-01-15T19:02:31.644Z,6.36
2023-01-15T19:05:00.582Z,6.36
2023-01-15T19:07:28.222Z,6.37
2023-01-15T19:09:56.129Z,6.35
2023-01-15T19:12:23.881Z,6.31
2023-01-15T19:15:08.924Z,6.38
2023-01-15T19:17:55.371Z,6.36
2023-01-15T19:20:23.074Z,6.22
2023-01-15T19:22:59.468Z,6.28
2023-01-15T19:25:29.836Z,6.25
2023-01-15T19:28:00.419Z,6.21
2023-01-15T19:30:29.409Z,6.20
2023-01-15T19:32:58.376Z,6.28
2023-01-15T19:35:26.190Z,6.21
2023-01-15T19:37:55.038Z,6.29
2023-01-15T19:40:23.149Z,6.21
2023-01-15T19:43:09.248Z,6.22
2023-01-15T19:45:57.827Z,6.20
2023-01-15T19:48:44.447Z,6.24
2023-01-15T19:51:13.569Z,6.29
2023-01-15T19:53:41.617Z,6.20
2023-01-15T19:56:09.556Z,6.18
2023-01-15T19:58:37.809Z,6.34
2023-01-15T20:01:05.905Z,6.36
2023-01-15T20:03:36.390Z,6.37
2023-01-15T20:06:08.532Z,6.38
2023-01-15T20:08:39.890Z,6.35
2023-01-15T20:11:10.400Z,6.44
2023-01-15T20:13:53.434Z,6.34
2023-01-15T20:16:25.201Z,6.34
2023-01-15T20:18:55.580Z,6.36
2023-01-15T20:21:23.448Z,6.42
2023-01-15T20:23:53.013Z,6.48
2023-01-15T20:26:24.442Z,6.42
2023-01-15T20:28:52.059Z,6.39
2023-01-15T20:31:20.247Z,6.36
2023-01-15T20:33:48.299Z,6.41
2023-01-15T20:36:17.512Z,6.40
2023-01-15T20:38:45.177Z,6.38
2023-01-15T20:41:35.501Z,6.35
2023-01-15T20:44:22.407Z,6.34
2023-01-15T20:46:50.063Z,6.30
2023-01-15T20:49:27.278Z,6.34
2023-01-15T20:51:57.315Z,6.29
2023-01-15T20:54:26.202Z,6.38
2023-01-15T20:56:54.065Z,6.34
2023-01-15T20:59:22.068Z,6.41
2023-01-15T21:01:49.860Z,6.36
2023-01-15T21:04:18.322Z,6.34
2023-01-15T21:06:46.541Z,6.29
2023-01-15T21:09:15.960Z,6.34
2023-01-15T21:11:43.629Z,6.27
2023-01-15T21:14:15.461Z,6.31
2023-01-15T21:16:45.170Z,6.31
2023-01-15T21:19:12.891Z,6.27
2023-01-15T21:21:41.005Z,6.25
2023-01-15T21:24:09.529Z,6.19
2023-01-15T21:26:39.137Z,6.18
2023-01-15T21:29:06.948Z,6.29
2023-01-15T21:31:36.870Z,6.22
2023-01-15T21:34:05.072Z,6.23
2023-01-15T21:36:32.894Z,6.16
2023-01-15T21:39:00.687Z,6.18
2023-01-15T21:41:42.925Z,6.13
2023-01-15T21:44:33.948Z,6.11
2023-01-15T21:47:03.666Z,6.12
2023-01-15T21:49:33.283Z,6.14
2023-01-15T21:52:03.430Z,6.11
2023-01-15T21:54:32.521Z,6.15
2023-01-15T21:57:00.179Z,6.11
2023-01-15T21:59:29.178Z,6.23
2023-01-15T22:01:57.508Z,6.18
2023-01-15T22:04:26.879Z,6.12
2023-01-15T22:06:55.342Z,6.10
2023-01-15T22:09:23.621Z,6.07
2023-01-15T22:11:52.476Z,6.08
2023-01-15T22:14:23.667Z,6.08
2023-01-15T22:16:55.584Z,6.13
2023-01-15T22:19:24.891Z,6.08
2023-01-15T22:21:53.508Z,6.07
2023-01-15T22:24:21.926Z,6.09
2023-01-15T22:26:54.325Z,6.06
2023-01-15T22:29:22.656Z,6.07
2023-01-15T22:31:50.983Z,6.04
2023-01-15T22:34:24.096Z,5.98
2023-01-15T22:36:52.615Z,6.06
2023-01-15T22:39:21.302Z,6.01
2023-01-15T22:42:06.512Z,6.00
2023-01-15T22:44:35.805Z,5.99
2023-01-15T22:47:04.798Z,6.01
2023-01-15T22:49:34.276Z,6.10
2023-01-15T22:52:02.457Z,6.03
2023-01-15T22:54:30.091Z,6.06
2023-01-15T22:56:57.730Z,6.05
2023-01-15T22:59:25.353Z,6.08
2023-01-15T23:01:53.293Z,6.09
2023-01-15T23:04:23.918Z,6.10
2023-01-15T23:06:54.158Z,6.08
2023-01-15T23:09:24.128Z,6.02
2023-01-15T23:11:52.226Z,6.00
2023-01-15T23:14:21.702Z,6.16
2023-01-15T23:16:50.434Z,6.06
2023-01-15T23:19:18.470Z,5.91
2023-01-15T23:21:47.445Z,5.95
2023-01-15T23:24:17.831Z,5.90
2023-01-15T23:26:45.449Z,5.81
2023-01-15T23:29:13.174Z,5.73
2023-01-15T23:31:40.738Z,5.74
2023-01-15T23:34:09.980Z,5.82
2023-01-15T23:36:37.609Z,5.68
2023-01-15T23:39:05.395Z,5.58
2023-01-15T23:41:54.278Z,5.59
2023-01-15T23:44:40.149Z,5.56
2023-01-15T23:47:08.967Z,5.41
2023-01-15T23:49:36.742Z,5.33
2023-01-15T23:52:05.544Z,5.28
2023-01-15T23:54:33.544Z,5.31
2023-01-15T23:57:03.126Z,5.32
2023-01-15T23:59:31.199Z,5.28
